sensor_id;sensor_type;location;lat;lon;timestamp;temperature;humidity
38973;DHT22;25333;50.762;4.470;2023-08-06T00:00:04;15.70;99.90
38973;DHT22;25333;50.762;4.470;2023-08-06T00:02:30;15.70;99.90
38973;DHT22;25333;50.762;4.470;2023-08-06T00:04:56;15.70;99.90
38973;DHT22;25333;50.762;4.470;2023-08-06T00:07:21;15.70;99.90
38973;DHT22;25333;50.762;4.470;2023-08-06T00:09:47;15.70;99.90
38973;DHT22;25333;50.762;4.470;2023-08-06T00:12:13;15.60;99.90
38973;DHT22;25333;50.762;4.470;2023-08-06T00:14:38;15.70;99.90
38973;DHT22;25333;50.762;4.470;2023-08-06T00:17:04;15.70;99.90
38973;DHT22;25333;50.762;4.470;2023-08-06T00:19:31;15.70;99.90
38973;DHT22;25333;50.762;4.470;2023-08-06T00:21:57;15.70;99.90
38973;DHT22;25333;50.762;4.470;2023-08-06T00:24:22;15.70;99.90
38973;DHT22;25333;50.762;4.470;2023-08-06T00:26:48;15.70;99.90
38973;DHT22;25333;50.762;4.470;2023-08-06T00:29:14;15.70;99.90
38973;DHT22;25333;50.762;4.470;2023-08-06T00:31:39;15.70;99.90
38973;DHT22;25333;50.762;4.470;2023-08-06T00:34:05;15.70;99.90
38973;DHT22;25333;50.762;4.470;2023-08-06T00:36:31;15.70;99.90
38973;DHT22;25333;50.762;4.470;2023-08-06T00:38:56;15.60;99.90
38973;DHT22;25333;50.762;4.470;2023-08-06T00:41:22;15.60;99.90
38973;DHT22;25333;50.762;4.470;2023-08-06T00:43:48;15.60;99.90
38973;DHT22;25333;50.762;4.470;2023-08-06T00:46:14;15.70;99.90
38973;DHT22;25333;50.762;4.470;2023-08-06T00:48:40;15.70;99.90
38973;DHT22;25333;50.762;4.470;2023-08-06T00:51:08;15.70;99.90
38973;DHT22;25333;50.762;4.470;2023-08-06T00:53:35;15.60;99.90
38973;DHT22;25333;50.762;4.470;2023-08-06T00:56:01;15.60;99.90
38973;DHT22;25333;50.762;4.470;2023-08-06T00:58:26;15.70;99.90
38973;DHT22;25333;50.762;4.470;2023-08-06T01:00:52;15.70;99.90
38973;DHT22;25333;50.762;4.470;2023-08-06T01:03:18;15.70;99.90
38973;DHT22;25333;50.762;4.470;2023-08-06T01:05:43;15.70;99.90
38973;DHT22;25333;50.762;4.470;2023-08-06T01:08:30;15.80;99.90
38973;DHT22;25333;50.762;4.470;2023-08-06T01:11:26;15.80;99.90
38973;DHT22;25333;50.762;4.470;2023-08-06T01:14:17;15.80;99.90
38973;DHT22;25333;50.762;4.470;2023-08-06T01:16:44;15.80;99.90
38973;DHT22;25333;50.762;4.470;2023-08-06T01:19:19;15.90;99.90
38973;DHT22;25333;50.762;4.470;2023-08-06T01:21:45;15.80;99.90
38973;DHT22;25333;50.762;4.470;2023-08-06T01:24:11;15.70;99.90
38973;DHT22;25333;50.762;4.470;2023-08-06T01:26:43;15.80;99.90
38973;DHT22;25333;50.762;4.470;2023-08-06T01:29:17;15.70;99.90
38973;DHT22;25333;50.762;4.470;2023-08-06T01:31:48;15.80;99.90
38973;DHT22;25333;50.762;4.470;2023-08-06T01:34:17;15.80;99.90
38973;DHT22;25333;50.762;4.470;2023-08-06T01:36:45;15.70;99.90
38973;DHT22;25333;50.762;4.470;2023-08-06T01:39:13;15.60;99.90
38973;DHT22;25333;50.762;4.470;2023-08-06T01:41:39;15.60;99.90
38973;DHT22;25333;50.762;4.470;2023-08-06T01:44:05;15.70;99.90
38973;DHT22;25333;50.762;4.470;2023-08-06T01:46:31;15.70;99.90
38973;DHT22;25333;50.762;4.470;2023-08-06T01:48:56;15.60;99.90
38973;DHT22;25333;50.762;4.470;2023-08-06T01:51:22;15.60;99.90
38973;DHT22;25333;50.762;4.470;2023-08-06T01:53:48;15.70;99.90
38973;DHT22;25333;50.762;4.470;2023-08-06T01:56:13;15.50;99.90
38973;DHT22;25333;50.762;4.470;2023-08-06T01:58:39;15.50;99.90
38973;DHT22;25333;50.762;4.470;2023-08-06T02:01:04;15.30;99.90
38973;DHT22;25333;50.762;4.470;2023-08-06T02:03:30;15.40;99.90
38973;DHT22;25333;50.762;4.470;2023-08-06T02:05:56;15.50;99.90
38973;DHT22;25333;50.762;4.470;2023-08-06T02:08:21;15.60;99.90
38973;DHT22;25333;50.762;4.470;2023-08-06T02:10:48;15.60;99.90
38973;DHT22;25333;50.762;4.470;2023-08-06T02:13:14;15.60;99.90
38973;DHT22;25333;50.762;4.470;2023-08-06T02:15:43;15.60;99.90
38973;DHT22;25333;50.762;4.470;2023-08-06T02:18:09;15.60;99.90
38973;DHT22;25333;50.762;4.470;2023-08-06T02:20:35;15.50;99.90
38973;DHT22;25333;50.762;4.470;2023-08-06T02:23:00;15.40;99.90
38973;DHT22;25333;50.762;4.470;2023-08-06T02:25:26;15.40;99.90
38973;DHT22;25333;50.762;4.470;2023-08-06T02:27:52;15.50;99.90
38973;DHT22;25333;50.762;4.470;2023-08-06T02:30:17;15.30;99.90
38973;DHT22;25333;50.762;4.470;2023-08-06T02:32:43;15.40;99.90
38973;DHT22;25333;50.762;4.470;2023-08-06T02:35:08;15.50;99.90
38973;DHT22;25333;50.762;4.470;2023-08-06T02:37:34;15.40;99.90
38973;DHT22;25333;50.762;4.470;2023-08-06T02:40:00;15.40;99.90
38973;DHT22;25333;50.762;4.470;2023-08-06T02:42:26;15.30;99.90
38973;DHT22;25333;50.762;4.470;2023-08-06T02:44:52;15.40;99.90
38973;DHT22;25333;50.762;4.470;2023-08-06T02:47:20;15.30;99.90
38973;DHT22;25333;50.762;4.470;2023-08-06T02:49:46;15.40;99.90
38973;DHT22;25333;50.762;4.470;2023-08-06T02:52:12;15.40;99.90
38973;DHT22;25333;50.762;4.470;2023-08-06T02:54:38;15.40;99.90
38973;DHT22;25333;50.762;4.470;2023-08-06T02:57:04;15.40;99.90
38973;DHT22;25333;50.762;4.470;2023-08-06T02:59:30;15.40;99.90
38973;DHT22;25333;50.762;4.470;2023-08-06T03:01:56;15.40;99.90
38973;DHT22;25333;50.762;4.470;2023-08-06T03:04:22;15.30;99.90
38973;DHT22;25333;50.762;4.470;2023-08-06T03:06:49;15.40;99.90
38973;DHT22;25333;50.762;4.470;2023-08-06T03:09:16;15.30;99.90
38973;DHT22;25333;50.762;4.470;2023-08-06T03:11:41;15.40;99.90
38973;DHT22;25333;50.762;4.470;2023-08-06T03:14:07;15.40;99.90
38973;DHT22;25333;50.762;4.470;2023-08-06T03:16:32;15.40;99.90
38973;DHT22;25333;50.762;4.470;2023-08-06T03:18:58;15.40;99.90
38973;DHT22;25333;50.762;4.470;2023-08-06T03:21:24;15.40;99.90
38973;DHT22;25333;50.762;4.470;2023-08-06T03:23:50;15.40;99.90
38973;DHT22;25333;50.762;4.470;2023-08-06T03:26:15;15.30;99.90
38973;DHT22;25333;50.762;4.470;2023-08-06T03:28:41;15.30;99.90
38973;DHT22;25333;50.762;4.470;2023-08-06T03:31:07;15.40;99.90
38973;DHT22;25333;50.762;4.470;2023-08-06T03:33:32;15.50;99.90
38973;DHT22;25333;50.762;4.470;2023-08-06T03:35:58;15.40;99.90
38973;DHT22;25333;50.762;4.470;2023-08-06T03:38:24;15.40;99.90
38973;DHT22;25333;50.762;4.470;2023-08-06T03:40:51;15.40;99.90
38973;DHT22;25333;50.762;4.470;2023-08-06T03:43:17;15.40;99.90
38973;DHT22;25333;50.762;4.470;2023-08-06T03:45:42;15.50;99.90
38973;DHT22;25333;50.762;4.470;2023-08-06T03:48:08;15.40;99.90
38973;DHT22;25333;50.762;4.470;2023-08-06T03:50:34;15.50;99.90
38973;DHT22;25333;50.762;4.470;2023-08-06T03:53:00;15.50;99.90
38973;DHT22;25333;50.762;4.470;2023-08-06T03:55:26;15.50;99.90
38973;DHT22;25333;50.762;4.470;2023-08-06T03:57:52;15.40;99.90
38973;DHT22;25333;50.762;4.470;2023-08-06T04:00:17;15.40;99.90
38973;DHT22;25333;50.762;4.470;2023-08-06T04:02:43;15.30;99.90
38973;DHT22;25333;50.762;4.470;2023-08-06T04:05:09;15.20;99.90
38973;DHT22;25333;50.762;4.470;2023-08-06T04:07:35;15.20;99.90
38973;DHT22;25333;50.762;4.470;2023-08-06T04:10:03;15.20;99.90
38973;DHT22;25333;50.762;4.470;2023-08-06T04:12:29;15.30;99.90
38973;DHT22;25333;50.762;4.470;2023-08-06T04:14:57;15.40;99.90
38973;DHT22;25333;50.762;4.470;2023-08-06T04:17:23;15.40;99.90
38973;DHT22;25333;50.762;4.470;2023-08-06T04:19:53;15.30;99.90
38973;DHT22;25333;50.762;4.470;2023-08-06T04:22:19;15.20;99.90
38973;DHT22;25333;50.762;4.470;2023-08-06T04:24:45;15.00;99.90
38973;DHT22;25333;50.762;4.470;2023-08-06T04:27:12;15.00;99.90
38973;DHT22;25333;50.762;4.470;2023-08-06T04:29:38;14.80;99.90
38973;DHT22;25333;50.762;4.470;2023-08-06T04:32:06;14.90;99.90
38973;DHT22;25333;50.762;4.470;2023-08-06T04:34:32;14.70;99.90
38973;DHT22;25333;50.762;4.470;2023-08-06T04:36:59;14.70;99.90
38973;DHT22;25333;50.762;4.470;2023-08-06T04:39:24;14.60;99.90
38973;DHT22;25333;50.762;4.470;2023-08-06T04:41:50;14.50;99.90
38973;DHT22;25333;50.762;4.470;2023-08-06T04:44:17;14.60;99.90
38973;DHT22;25333;50.762;4.470;2023-08-06T04:46:43;14.60;99.90
38973;DHT22;25333;50.762;4.470;2023-08-06T04:49:08;14.60;99.90
38973;DHT22;25333;50.762;4.470;2023-08-06T04:51:34;14.60;99.90
38973;DHT22;25333;50.762;4.470;2023-08-06T04:54:00;14.60;99.90
38973;DHT22;25333;50.762;4.470;2023-08-06T04:56:26;14.70;99.90
38973;DHT22;25333;50.762;4.470;2023-08-06T04:58:52;14.70;99.90
38973;DHT22;25333;50.762;4.470;2023-08-06T05:01:18;14.70;99.90
38973;DHT22;25333;50.762;4.470;2023-08-06T05:03:43;14.80;99.90
38973;DHT22;25333;50.762;4.470;2023-08-06T05:06:09;14.70;99.90
38973;DHT22;25333;50.762;4.470;2023-08-06T05:08:36;14.70;99.90
38973;DHT22;25333;50.762;4.470;2023-08-06T05:11:01;14.70;99.90
38973;DHT22;25333;50.762;4.470;2023-08-06T05:13:27;14.70;99.90
38973;DHT22;25333;50.762;4.470;2023-08-06T05:15:56;14.60;99.90
38973;DHT22;25333;50.762;4.470;2023-08-06T05:18:22;14.50;99.90
38973;DHT22;25333;50.762;4.470;2023-08-06T05:20:48;14.50;99.90
38973;DHT22;25333;50.762;4.470;2023-08-06T05:23:13;14.50;99.90
38973;DHT22;25333;50.762;4.470;2023-08-06T05:25:39;14.60;99.90
38973;DHT22;25333;50.762;4.470;2023-08-06T05:28:05;14.60;99.90
38973;DHT22;25333;50.762;4.470;2023-08-06T05:30:31;14.60;99.90
38973;DHT22;25333;50.762;4.470;2023-08-06T05:32:57;14.50;99.90
38973;DHT22;25333;50.762;4.470;2023-08-06T05:35:23;14.30;99.90
38973;DHT22;25333;50.762;4.470;2023-08-06T05:37:50;14.40;99.90
38973;DHT22;25333;50.762;4.470;2023-08-06T05:40:15;14.30;99.90
38973;DHT22;25333;50.762;4.470;2023-08-06T05:42:41;14.30;99.90
38973;DHT22;25333;50.762;4.470;2023-08-06T05:45:08;14.30;99.90
38973;DHT22;25333;50.762;4.470;2023-08-06T05:47:33;14.30;99.90
38973;DHT22;25333;50.762;4.470;2023-08-06T05:49:59;14.20;99.90
38973;DHT22;25333;50.762;4.470;2023-08-06T05:52:25;14.30;99.90
38973;DHT22;25333;50.762;4.470;2023-08-06T05:54:51;14.10;99.90
38973;DHT22;25333;50.762;4.470;2023-08-06T05:57:17;14.10;99.90
38973;DHT22;25333;50.762;4.470;2023-08-06T05:59:43;14.00;99.90
38973;DHT22;25333;50.762;4.470;2023-08-06T06:02:09;14.20;99.90
38973;DHT22;25333;50.762;4.470;2023-08-06T06:04:34;14.30;99.90
38973;DHT22;25333;50.762;4.470;2023-08-06T06:07:00;14.20;99.90
38973;DHT22;25333;50.762;4.470;2023-08-06T06:09:26;14.20;99.90
38973;DHT22;25333;50.762;4.470;2023-08-06T06:11:52;14.20;99.90
38973;DHT22;25333;50.762;4.470;2023-08-06T06:14:18;14.20;99.90
38973;DHT22;25333;50.762;4.470;2023-08-06T06:16:48;14.30;99.90
38973;DHT22;25333;50.762;4.470;2023-08-06T06:19:14;14.30;99.90
38973;DHT22;25333;50.762;4.470;2023-08-06T06:21:40;14.40;99.90
38973;DHT22;25333;50.762;4.470;2023-08-06T06:24:06;14.40;99.90
38973;DHT22;25333;50.762;4.470;2023-08-06T06:26:32;14.50;99.90
38973;DHT22;25333;50.762;4.470;2023-08-06T06:28:58;14.40;99.90
38973;DHT22;25333;50.762;4.470;2023-08-06T06:31:23;14.40;99.90
38973;DHT22;25333;50.762;4.470;2023-08-06T06:33:49;14.50;99.90
38973;DHT22;25333;50.762;4.470;2023-08-06T06:36:15;14.40;99.90
38973;DHT22;25333;50.762;4.470;2023-08-06T06:38:42;14.40;99.90
38973;DHT22;25333;50.762;4.470;2023-08-06T06:41:08;14.50;99.90
38973;DHT22;25333;50.762;4.470;2023-08-06T06:43:33;14.30;99.90
38973;DHT22;25333;50.762;4.470;2023-08-06T06:45:59;14.20;99.90
38973;DHT22;25333;50.762;4.470;2023-08-06T06:48:29;14.30;99.90
38973;DHT22;25333;50.762;4.470;2023-08-06T06:50:56;14.40;99.90
38973;DHT22;25333;50.762;4.470;2023-08-06T06:53:22;14.30;99.90
38973;DHT22;25333;50.762;4.470;2023-08-06T06:56:00;14.20;99.90
38973;DHT22;25333;50.762;4.470;2023-08-06T06:58:26;14.30;99.90
38973;DHT22;25333;50.762;4.470;2023-08-06T07:00:52;14.30;99.90
38973;DHT22;25333;50.762;4.470;2023-08-06T07:03:19;14.30;99.90
38973;DHT22;25333;50.762;4.470;2023-08-06T07:05:45;14.40;99.90
38973;DHT22;25333;50.762;4.470;2023-08-06T07:08:11;14.50;99.90
38973;DHT22;25333;50.762;4.470;2023-08-06T07:10:37;14.50;99.90
38973;DHT22;25333;50.762;4.470;2023-08-06T07:13:02;14.40;99.90
38973;DHT22;25333;50.762;4.470;2023-08-06T07:15:28;14.40;99.90
38973;DHT22;25333;50.762;4.470;2023-08-06T07:17:53;14.40;99.90
38973;DHT22;25333;50.762;4.470;2023-08-06T07:20:19;14.40;99.90
38973;DHT22;25333;50.762;4.470;2023-08-06T07:22:45;14.40;99.90
38973;DHT22;25333;50.762;4.470;2023-08-06T07:25:11;14.30;99.90
38973;DHT22;25333;50.762;4.470;2023-08-06T07:27:36;14.30;99.90
38973;DHT22;25333;50.762;4.470;2023-08-06T07:30:02;14.30;99.90
38973;DHT22;25333;50.762;4.470;2023-08-06T07:32:28;14.40;99.90
38973;DHT22;25333;50.762;4.470;2023-08-06T07:34:54;14.40;99.90
38973;DHT22;25333;50.762;4.470;2023-08-06T07:37:25;14.50;99.90
38973;DHT22;25333;50.762;4.470;2023-08-06T07:39:50;14.60;99.90
38973;DHT22;25333;50.762;4.470;2023-08-06T07:42:16;14.60;99.90
38973;DHT22;25333;50.762;4.470;2023-08-06T07:44:41;14.40;99.90
38973;DHT22;25333;50.762;4.470;2023-08-06T07:47:07;14.20;99.90
38973;DHT22;25333;50.762;4.470;2023-08-06T07:49:33;14.30;99.90
38973;DHT22;25333;50.762;4.470;2023-08-06T07:51:58;14.40;99.90
38973;DHT22;25333;50.762;4.470;2023-08-06T07:54:24;14.40;99.90
38973;DHT22;25333;50.762;4.470;2023-08-06T07:56:50;14.50;99.90
38973;DHT22;25333;50.762;4.470;2023-08-06T07:59:15;14.50;99.90
38973;DHT22;25333;50.762;4.470;2023-08-06T08:01:42;14.70;99.90
38973;DHT22;25333;50.762;4.470;2023-08-06T08:04:07;14.70;99.90
38973;DHT22;25333;50.762;4.470;2023-08-06T08:06:33;14.70;99.90
38973;DHT22;25333;50.762;4.470;2023-08-06T08:08:59;14.80;99.90
38973;DHT22;25333;50.762;4.470;2023-08-06T08:11:26;14.70;99.90
38973;DHT22;25333;50.762;4.470;2023-08-06T08:14:01;14.80;99.90
38973;DHT22;25333;50.762;4.470;2023-08-06T08:16:28;14.90;99.90
38973;DHT22;25333;50.762;4.470;2023-08-06T08:18:53;15.00;99.90
38973;DHT22;25333;50.762;4.470;2023-08-06T08:21:19;15.10;99.90
38973;DHT22;25333;50.762;4.470;2023-08-06T08:23:45;15.10;99.90
38973;DHT22;25333;50.762;4.470;2023-08-06T08:26:10;15.10;99.90
38973;DHT22;25333;50.762;4.470;2023-08-06T08:28:38;15.20;99.90
38973;DHT22;25333;50.762;4.470;2023-08-06T08:31:03;15.30;99.90
38973;DHT22;25333;50.762;4.470;2023-08-06T08:33:29;15.10;99.90
38973;DHT22;25333;50.762;4.470;2023-08-06T08:35:57;15.10;99.90
38973;DHT22;25333;50.762;4.470;2023-08-06T08:38:23;14.90;99.90
38973;DHT22;25333;50.762;4.470;2023-08-06T08:40:57;14.90;99.90
38973;DHT22;25333;50.762;4.470;2023-08-06T08:43:26;14.90;99.90
38973;DHT22;25333;50.762;4.470;2023-08-06T08:46:15;14.80;99.90
38973;DHT22;25333;50.762;4.470;2023-08-06T08:48:42;14.60;99.90
38973;DHT22;25333;50.762;4.470;2023-08-06T08:51:20;14.70;99.90
38973;DHT22;25333;50.762;4.470;2023-08-06T08:53:49;14.80;99.90
38973;DHT22;25333;50.762;4.470;2023-08-06T08:56:38;14.70;99.90
38973;DHT22;25333;50.762;4.470;2023-08-06T08:59:03;14.70;99.90
38973;DHT22;25333;50.762;4.470;2023-08-06T09:01:52;14.80;99.90
38973;DHT22;25333;50.762;4.470;2023-08-06T09:07:14;14.80;99.90
38973;DHT22;25333;50.762;4.470;2023-08-06T09:09:43;14.60;99.90
38973;DHT22;25333;50.762;4.470;2023-08-06T09:12:17;14.70;99.90
38973;DHT22;25333;50.762;4.470;2023-08-06T09:15:06;14.70;99.90
38973;DHT22;25333;50.762;4.470;2023-08-06T09:17:32;14.70;99.90
38973;DHT22;25333;50.762;4.470;2023-08-06T09:19:58;14.60;99.90
38973;DHT22;25333;50.762;4.470;2023-08-06T09:22:58;14.60;99.90
38973;DHT22;25333;50.762;4.470;2023-08-06T09:25:42;14.50;99.90
38973;DHT22;25333;50.762;4.470;2023-08-06T09:28:08;14.40;99.90
38973;DHT22;25333;50.762;4.470;2023-08-06T09:30:42;14.30;99.90
38973;DHT22;25333;50.762;4.470;2023-08-06T09:33:10;14.30;99.90
38973;DHT22;25333;50.762;4.470;2023-08-06T09:35:37;14.40;99.90
38973;DHT22;25333;50.762;4.470;2023-08-06T09:38:07;14.40;99.90
38973;DHT22;25333;50.762;4.470;2023-08-06T09:41:03;14.40;99.90
38973;DHT22;25333;50.762;4.470;2023-08-06T09:43:28;14.40;99.90
38973;DHT22;25333;50.762;4.470;2023-08-06T09:45:55;14.40;99.90
38973;DHT22;25333;50.762;4.470;2023-08-06T09:48:28;14.30;99.90
38973;DHT22;25333;50.762;4.470;2023-08-06T09:50:54;14.30;99.90
38973;DHT22;25333;50.762;4.470;2023-08-06T09:53:22;14.30;99.90
38973;DHT22;25333;50.762;4.470;2023-08-06T09:55:48;14.20;99.90
38973;DHT22;25333;50.762;4.470;2023-08-06T09:58:14;14.20;99.90
38973;DHT22;25333;50.762;4.470;2023-08-06T10:00:40;14.10;99.90
38973;DHT22;25333;50.762;4.470;2023-08-06T10:03:06;14.10;99.90
38973;DHT22;25333;50.762;4.470;2023-08-06T10:05:33;14.00;99.90
38973;DHT22;25333;50.762;4.470;2023-08-06T10:08:00;14.10;99.90
38973;DHT22;25333;50.762;4.470;2023-08-06T10:10:28;14.30;99.90
38973;DHT22;25333;50.762;4.470;2023-08-06T10:12:56;14.20;99.90
38973;DHT22;25333;50.762;4.470;2023-08-06T10:15:25;14.20;99.90
38973;DHT22;25333;50.762;4.470;2023-08-06T10:17:56;14.20;99.90
38973;DHT22;25333;50.762;4.470;2023-08-06T10:20:22;14.30;99.90
38973;DHT22;25333;50.762;4.470;2023-08-06T10:23:05;14.40;99.90
38973;DHT22;25333;50.762;4.470;2023-08-06T10:25:40;14.60;99.90
38973;DHT22;25333;50.762;4.470;2023-08-06T10:28:11;14.40;99.90
38973;DHT22;25333;50.762;4.470;2023-08-06T10:31:09;14.20;99.90
38973;DHT22;25333;50.762;4.470;2023-08-06T10:33:45;14.20;99.90
38973;DHT22;25333;50.762;4.470;2023-08-06T10:36:12;14.20;99.90
38973;DHT22;25333;50.762;4.470;2023-08-06T10:39:06;14.30;99.90
38973;DHT22;25333;50.762;4.470;2023-08-06T10:41:32;14.30;99.90
38973;DHT22;25333;50.762;4.470;2023-08-06T10:44:06;14.20;99.90
38973;DHT22;25333;50.762;4.470;2023-08-06T10:46:35;14.20;99.90
38973;DHT22;25333;50.762;4.470;2023-08-06T10:49:01;14.20;99.90
38973;DHT22;25333;50.762;4.470;2023-08-06T10:51:27;14.10;99.90
38973;DHT22;25333;50.762;4.470;2023-08-06T10:53:53;14.20;99.90
38973;DHT22;25333;50.762;4.470;2023-08-06T10:56:24;14.20;99.90
38973;DHT22;25333;50.762;4.470;2023-08-06T10:58:53;14.10;99.90
38973;DHT22;25333;50.762;4.470;2023-08-06T11:01:22;14.20;99.90
38973;DHT22;25333;50.762;4.470;2023-08-06T11:03:48;14.20;99.90
38973;DHT22;25333;50.762;4.470;2023-08-06T11:06:22;14.10;99.90
38973;DHT22;25333;50.762;4.470;2023-08-06T11:08:53;14.10;99.90
38973;DHT22;25333;50.762;4.470;2023-08-06T11:11:26;14.30;99.90
38973;DHT22;25333;50.762;4.470;2023-08-06T11:14:01;14.10;99.90
38973;DHT22;25333;50.762;4.470;2023-08-06T11:16:35;14.30;99.90
38973;DHT22;25333;50.762;4.470;2023-08-06T11:19:02;14.50;99.90
38973;DHT22;25333;50.762;4.470;2023-08-06T11:21:33;14.60;99.90
38973;DHT22;25333;50.762;4.470;2023-08-06T11:23:59;14.60;99.90
38973;DHT22;25333;50.762;4.470;2023-08-06T11:26:32;14.70;99.90
38973;DHT22;25333;50.762;4.470;2023-08-06T11:29:15;14.70;99.90
38973;DHT22;25333;50.762;4.470;2023-08-06T11:32:46;14.60;99.90
38973;DHT22;25333;50.762;4.470;2023-08-06T11:35:49;14.50;99.90
38973;DHT22;25333;50.762;4.470;2023-08-06T11:38:34;14.60;99.90
38973;DHT22;25333;50.762;4.470;2023-08-06T11:41:20;14.50;99.90
38973;DHT22;25333;50.762;4.470;2023-08-06T11:43:49;14.60;99.90
38973;DHT22;25333;50.762;4.470;2023-08-06T11:46:15;14.60;99.90
38973;DHT22;25333;50.762;4.470;2023-08-06T11:49:07;14.50;99.90
38973;DHT22;25333;50.762;4.470;2023-08-06T11:51:42;14.40;99.90
38973;DHT22;25333;50.762;4.470;2023-08-06T11:54:10;14.60;99.90
38973;DHT22;25333;50.762;4.470;2023-08-06T11:56:36;14.50;99.90
38973;DHT22;25333;50.762;4.470;2023-08-06T11:59:01;14.60;99.90
38973;DHT22;25333;50.762;4.470;2023-08-06T12:01:28;14.40;99.90
38973;DHT22;25333;50.762;4.470;2023-08-06T12:03:59;14.40;99.90
38973;DHT22;25333;50.762;4.470;2023-08-06T12:06:27;14.40;99.90
38973;DHT22;25333;50.762;4.470;2023-08-06T12:08:53;14.30;99.90
38973;DHT22;25333;50.762;4.470;2023-08-06T12:11:21;14.40;99.90
38973;DHT22;25333;50.762;4.470;2023-08-06T12:13:51;14.40;99.90
38973;DHT22;25333;50.762;4.470;2023-08-06T12:16:17;14.40;99.90
38973;DHT22;25333;50.762;4.470;2023-08-06T12:18:44;14.30;99.90
38973;DHT22;25333;50.762;4.470;2023-08-06T12:21:21;14.20;99.90
38973;DHT22;25333;50.762;4.470;2023-08-06T12:23:49;14.30;99.90
38973;DHT22;25333;50.762;4.470;2023-08-06T12:26:21;14.20;99.90
38973;DHT22;25333;50.762;4.470;2023-08-06T12:28:58;14.30;99.90
38973;DHT22;25333;50.762;4.470;2023-08-06T12:31:27;14.40;99.90
38973;DHT22;25333;50.762;4.470;2023-08-06T12:34:03;14.60;99.90
38973;DHT22;25333;50.762;4.470;2023-08-06T12:36:28;14.70;99.90
38973;DHT22;25333;50.762;4.470;2023-08-06T12:39:11;14.70;99.90
38973;DHT22;25333;50.762;4.470;2023-08-06T12:41:39;14.90;99.90
38973;DHT22;25333;50.762;4.470;2023-08-06T12:44:35;14.90;99.90
38973;DHT22;25333;50.762;4.470;2023-08-06T12:47:24;14.90;99.90
38973;DHT22;25333;50.762;4.470;2023-08-06T12:50:17;14.90;99.90
38973;DHT22;25333;50.762;4.470;2023-08-06T12:52:44;14.80;99.90
38973;DHT22;25333;50.762;4.470;2023-08-06T12:55:10;14.60;99.90
38973;DHT22;25333;50.762;4.470;2023-08-06T12:57:37;14.60;99.90
38973;DHT22;25333;50.762;4.470;2023-08-06T13:00:03;14.50;99.90
38973;DHT22;25333;50.762;4.470;2023-08-06T13:02:31;14.60;99.90
38973;DHT22;25333;50.762;4.470;2023-08-06T13:05:00;14.60;99.90
38973;DHT22;25333;50.762;4.470;2023-08-06T13:07:32;14.80;99.90
38973;DHT22;25333;50.762;4.470;2023-08-06T13:09:58;14.80;99.90
38973;DHT22;25333;50.762;4.470;2023-08-06T13:12:23;14.80;99.90
38973;DHT22;25333;50.762;4.470;2023-08-06T13:14:49;14.90;99.90
38973;DHT22;25333;50.762;4.470;2023-08-06T13:17:38;14.90;99.90
38973;DHT22;25333;50.762;4.470;2023-08-06T13:20:04;14.80;99.90
38973;DHT22;25333;50.762;4.470;2023-08-06T13:22:29;14.80;99.90
38973;DHT22;25333;50.762;4.470;2023-08-06T13:24:57;14.90;99.90
38973;DHT22;25333;50.762;4.470;2023-08-06T13:27:29;14.80;99.90
38973;DHT22;25333;50.762;4.470;2023-08-06T13:29:58;14.80;99.90
38973;DHT22;25333;50.762;4.470;2023-08-06T13:32:27;14.80;99.90
38973;DHT22;25333;50.762;4.470;2023-08-06T13:34:53;14.80;99.90
38973;DHT22;25333;50.762;4.470;2023-08-06T13:37:19;14.90;99.90
38973;DHT22;25333;50.762;4.470;2023-08-06T13:39:45;14.80;99.90
38973;DHT22;25333;50.762;4.470;2023-08-06T13:42:11;14.60;99.90
38973;DHT22;25333;50.762;4.470;2023-08-06T13:44:38;14.60;99.90
38973;DHT22;25333;50.762;4.470;2023-08-06T13:47:04;14.60;99.90
38973;DHT22;25333;50.762;4.470;2023-08-06T13:49:30;14.40;99.90
38973;DHT22;25333;50.762;4.470;2023-08-06T13:52:16;14.40;99.90
38973;DHT22;25333;50.762;4.470;2023-08-06T13:54:41;14.40;99.90
38973;DHT22;25333;50.762;4.470;2023-08-06T13:57:08;14.30;99.90
38973;DHT22;25333;50.762;4.470;2023-08-06T13:59:36;14.40;99.90
38973;DHT22;25333;50.762;4.470;2023-08-06T14:02:02;14.40;99.90
38973;DHT22;25333;50.762;4.470;2023-08-06T14:04:28;14.30;99.90
38973;DHT22;25333;50.762;4.470;2023-08-06T14:07:00;14.20;99.90
38973;DHT22;25333;50.762;4.470;2023-08-06T14:09:25;14.20;99.90
38973;DHT22;25333;50.762;4.470;2023-08-06T14:12:10;14.30;99.90
38973;DHT22;25333;50.762;4.470;2023-08-06T14:15:24;14.20;99.90
38973;DHT22;25333;50.762;4.470;2023-08-06T14:17:52;14.20;99.90
38973;DHT22;25333;50.762;4.470;2023-08-06T14:20:34;14.30;99.90
38973;DHT22;25333;50.762;4.470;2023-08-06T14:23:02;14.40;99.90
38973;DHT22;25333;50.762;4.470;2023-08-06T14:25:34;14.40;99.90
38973;DHT22;25333;50.762;4.470;2023-08-06T14:28:00;14.30;99.90
38973;DHT22;25333;50.762;4.470;2023-08-06T14:30:33;14.20;99.90
38973;DHT22;25333;50.762;4.470;2023-08-06T14:33:21;14.30;99.90
38973;DHT22;25333;50.762;4.470;2023-08-06T14:36:14;14.20;99.90
38973;DHT22;25333;50.762;4.470;2023-08-06T14:39:14;14.20;99.90
38973;DHT22;25333;50.762;4.470;2023-08-06T14:42:09;14.40;99.90
38973;DHT22;25333;50.762;4.470;2023-08-06T14:44:55;14.20;99.90
38973;DHT22;25333;50.762;4.470;2023-08-06T14:47:42;14.20;99.90
38973;DHT22;25333;50.762;4.470;2023-08-06T14:50:33;14.30;99.90
38973;DHT22;25333;50.762;4.470;2023-08-06T14:53:02;14.20;99.90
38973;DHT22;25333;50.762;4.470;2023-08-06T14:55:30;14.20;99.90
38973;DHT22;25333;50.762;4.470;2023-08-06T14:58:16;14.10;99.90
38973;DHT22;25333;50.762;4.470;2023-08-06T15:01:17;14.10;99.90
38973;DHT22;25333;50.762;4.470;2023-08-06T15:03:44;14.30;99.90
38973;DHT22;25333;50.762;4.470;2023-08-06T15:06:19;14.30;99.90
38973;DHT22;25333;50.762;4.470;2023-08-06T15:09:08;14.20;99.90
38973;DHT22;25333;50.762;4.470;2023-08-06T15:12:13;14.40;99.90
38973;DHT22;25333;50.762;4.470;2023-08-06T15:14:41;14.50;99.90
38973;DHT22;25333;50.762;4.470;2023-08-06T15:17:32;14.40;99.90
38973;DHT22;25333;50.762;4.470;2023-08-06T15:20:02;14.40;99.90
38973;DHT22;25333;50.762;4.470;2023-08-06T15:22:28;14.70;99.90
38973;DHT22;25333;50.762;4.470;2023-08-06T15:25:16;14.70;99.90
38973;DHT22;25333;50.762;4.470;2023-08-06T15:27:50;14.80;99.90
38973;DHT22;25333;50.762;4.470;2023-08-06T15:30:21;14.80;99.90
38973;DHT22;25333;50.762;4.470;2023-08-06T15:33:07;14.90;99.90
38973;DHT22;25333;50.762;4.470;2023-08-06T15:35:35;14.80;99.90
38973;DHT22;25333;50.762;4.470;2023-08-06T15:38:20;14.90;99.90
38973;DHT22;25333;50.762;4.470;2023-08-06T15:40:46;14.70;99.90
38973;DHT22;25333;50.762;4.470;2023-08-06T15:43:20;14.60;99.90
38973;DHT22;25333;50.762;4.470;2023-08-06T15:46:13;14.60;99.90
38973;DHT22;25333;50.762;4.470;2023-08-06T15:48:45;14.70;99.90